Dothan, West Virginia
Current Conditions -  °F | °C
As of 7:51 AM on Sunday 23 Nov 2014 (Local Time) from KBKW Reporting Station
Clear Clear  
Wind Chill: 40°   Ceiling: Unl
Heat Index: 44°   Visibility: 10mi
Dew Point: 26°   Wind: 7mph
Humidity: 49%   Direction: 130°SE
Pressure: 30.15"   Gusts: NA
Location:  37.97°N, 81.22°W
Report Text: KBKW 231251Z AUTO 13006KT 10SM CLR 07/M03 A3015 RMK AO2 SLP215 T00671033
Loading
Personal Weather Stations






























Interactive Weather Map New forecast layout! Learn more

10-Day Weather Forecast

Advertisements
Track Severe Weather on mobile